Elissa — WDD9058 — position and weather

sailwx.info

Track history (hours):
 
Tides and Currents Weather Stations Pressure Air Temp Water Temp Dewpoint Dewpoint Depression Visibility Wind Speed Wind Dir Waves Ship Positions

Elissa

Owner: Ingram Barge Company, Nashville, TN. More information available from US FCC via Universal Licensing System and Coast Guard Vessel Documentation Center.

Last reported at 2016-May-29 21:05 UTC. Time now 2016-May-31 06:00 UTC.
Position N 29°56' W 090°11'.

Length 26 m; draft 3.6 m.

Type: Towing. MMSI: 367306290.

Date/timePositionNaut miles runAvg speedWind from/ knotsBaromVisibWave heightAir tempDewpointWater temp
2016-May-29 21:05N 29°56' W 090°11'2 2.9
2016-May-29 20:33N 29°57' W 090°10'0 0.0
2016-May-29 19:33N 29°57' W 090°10'0 0.2
2016-May-29 18:33N 29°57' W 090°10'0 0.0
2016-May-29 17:32N 29°57' W 090°10'0 0.0
2016-May-29 16:33N 29°57' W 090°10'0 0.0
2016-May-29 15:28N 29°57' W 090°10'0 0.0
2016-May-29 14:32N 29°57' W 090°10'0 0.0
2016-May-29 13:32N 29°57' W 090°10'0 0.0
2016-May-29 12:33N 29°57' W 090°10'0 0.0
2016-May-29 11:33N 29°57' W 090°10'0 0.2
2016-May-29 10:21N 29°57' W 090°10'  
2016-May-24 00:07N 29°56' W 090°11'1 2.1
2016-May-23 23:33N 29°57' W 090°10'  
2016-May-21 01:31N 29°56' W 090°10'1 0.7
2016-May-21 00:33N 29°57' W 090°10'0 0.0
2016-May-20 23:33N 29°57' W 090°10'0 0.0
2016-May-20 22:33N 29°57' W 090°10'0 0.0
2016-May-20 21:33N 29°57' W 090°10'4 4.3
2016-May-20 20:33N 29°55' W 090°06'0 0.2
2016-May-20 19:28N 29°55' W 090°06'4 4.6
2016-May-20 18:33N 29°57' W 090°10'0 0.0
2016-May-20 17:33N 29°57' W 090°10'1 0.7
2016-May-20 15:29N 29°56' W 090°11'  
Track history (hours):
 
Tides and Currents Weather Stations Pressure Air Temp Water Temp Dewpoint Dewpoint Depression Visibility Wind Speed Wind Dir Waves Ship Positions

Elissa

Owner: Ingram Barge Company, Nashville, TN. More information available from US FCC via Universal Licensing System and Coast Guard Vessel Documentation Center.

Last reported at 2016-May-29 21:05 UTC. Time now 2016-May-31 06:00 UTC.
Position N 29°56' W 090°11'.

Length 26 m; draft 3.6 m.

Type: Towing. MMSI: 367306290.

Date/timePositionNaut miles runAvg speedWind from/ knotsBaromVisibWave heightAir tempDewpointWater temp
2016-May-29 21:05N 29°56' W 090°11'2 2.9
2016-May-29 20:33N 29°57' W 090°10'0 0.0
2016-May-29 19:33N 29°57' W 090°10'0 0.2
2016-May-29 18:33N 29°57' W 090°10'0 0.0
2016-May-29 17:32N 29°57' W 090°10'0 0.0
2016-May-29 16:33N 29°57' W 090°10'0 0.0
2016-May-29 15:28N 29°57' W 090°10'0 0.0
2016-May-29 14:32N 29°57' W 090°10'0 0.0
2016-May-29 13:32N 29°57' W 090°10'0 0.0
2016-May-29 12:33N 29°57' W 090°10'0 0.0
2016-May-29 11:33N 29°57' W 090°10'0 0.2
2016-May-29 10:21N 29°57' W 090°10'  
2016-May-24 00:07N 29°56' W 090°11'1 2.1
2016-May-23 23:33N 29°57' W 090°10'  
2016-May-21 01:31N 29°56' W 090°10'1 0.7
2016-May-21 00:33N 29°57' W 090°10'0 0.0
2016-May-20 23:33N 29°57' W 090°10'0 0.0
2016-May-20 22:33N 29°57' W 090°10'0 0.0
2016-May-20 21:33N 29°57' W 090°10'4 4.3
2016-May-20 20:33N 29°55' W 090°06'0 0.2
2016-May-20 19:28N 29°55' W 090°06'4 4.6
2016-May-20 18:33N 29°57' W 090°10'0 0.0
2016-May-20 17:33N 29°57' W 090°10'1 0.7
2016-May-20 15:29N 29°56' W 090°11'  

Dump ship's entire track history